createdAt,value
2017-11-03T00:02:11.332Z,29.42
2017-11-03T00:04:56.459Z,31.92
2017-11-03T00:07:41.584Z,30.73
2017-11-03T00:10:26.699Z,32.53
2017-11-03T00:13:11.867Z,35.22
2017-11-03T00:15:57.082Z,30.90
2017-11-03T00:18:42.196Z,31.67
2017-11-03T00:21:27.516Z,32.33
2017-11-03T00:24:12.954Z,30.88
2017-11-03T00:26:58.385Z,31.08
2017-11-03T00:29:45.243Z,32.88
2017-11-03T00:32:30.983Z,31.60
2017-11-03T00:35:16.034Z,30.42
2017-11-03T00:38:01.285Z,31.10
2017-11-03T00:40:47.148Z,31.50
2017-11-03T00:43:33.997Z,31.60
2017-11-03T00:46:19.351Z,33.72
2017-11-03T00:49:04.608Z,31.12
2017-11-03T00:51:49.647Z,32.10
2017-11-03T00:54:35.014Z,30.70
2017-11-03T00:57:20.206Z,32.80
2017-11-03T01:00:06.428Z,30.40
2017-11-03T01:02:51.581Z,30.40
2017-11-03T01:05:37.022Z,30.55
2017-11-03T01:08:22.059Z,29.25
2017-11-03T01:11:07.570Z,31.92
2017-11-03T01:13:52.903Z,29.80
2017-11-03T01:16:38.973Z,32.00
2017-11-03T01:19:24.203Z,30.90
2017-11-03T01:22:09.502Z,32.20
2017-11-03T01:24:54.856Z,32.28
2017-11-03T01:27:41.010Z,33.05
2017-11-03T01:30:26.139Z,30.08
2017-11-03T01:33:11.989Z,28.98
2017-11-03T01:35:57.232Z,32.92
2017-11-03T01:38:42.619Z,29.98
2017-11-03T01:41:27.703Z,26.20
2017-11-03T01:44:12.887Z,26.58
2017-11-03T01:46:57.968Z,29.87
2017-11-03T01:49:43.013Z,31.30
2017-11-03T01:52:29.047Z,29.50
2017-11-03T01:55:14.191Z,28.98
2017-11-03T01:57:59.340Z,31.92
2017-11-03T02:00:44.674Z,29.98
2017-11-03T02:03:29.800Z,29.67
2017-11-03T02:06:15.001Z,30.08
2017-11-03T02:09:00.154Z,29.00
2017-11-03T02:11:45.058Z,27.67
2017-11-03T02:14:30.269Z,29.00
2017-11-03T02:17:15.402Z,28.80
2017-11-03T02:20:00.489Z,28.77
2017-11-03T02:22:45.536Z,28.48
2017-11-03T02:25:30.524Z,26.60
2017-11-03T02:28:15.831Z,26.58
2017-11-03T02:31:01.106Z,27.13
2017-11-03T02:33:46.162Z,27.10
2017-11-03T02:36:31.541Z,28.50
2017-11-03T02:39:17.066Z,29.70
2017-11-03T02:41:44.702Z,26.92
2017-11-03T02:44:12.332Z,29.45
2017-11-03T02:46:39.981Z,27.98
2017-11-03T02:49:07.636Z,28.85
2017-11-03T02:51:35.241Z,28.95
2017-11-03T02:54:02.848Z,29.15
2017-11-03T02:56:30.453Z,28.55
2017-11-03T02:58:58.058Z,29.90
2017-11-03T03:01:25.670Z,27.83
2017-11-03T03:03:53.280Z,28.00
2017-11-03T03:06:20.897Z,26.80
2017-11-03T03:08:48.510Z,26.40
2017-11-03T03:11:16.126Z,26.23
2017-11-03T03:13:43.707Z,26.00
2017-11-03T03:16:11.366Z,26.10
2017-11-03T03:18:39.703Z,24.85
2017-11-03T03:21:07.338Z,24.40
2017-11-03T03:23:34.956Z,23.23
2017-11-03T03:26:03.315Z,23.52
2017-11-03T03:28:30.976Z,24.35
2017-11-03T03:30:58.563Z,23.12
2017-11-03T03:33:26.950Z,22.77
2017-11-03T03:35:55.334Z,23.17
2017-11-03T03:38:23.719Z,23.77
2017-11-03T03:40:51.327Z,23.38
2017-11-03T03:43:18.938Z,23.15
2017-11-03T03:45:46.563Z,23.20
2017-11-03T03:48:14.206Z,23.23
2017-11-03T03:50:41.829Z,22.77
2017-11-03T03:53:09.400Z,21.50
2017-11-03T03:55:37.007Z,22.65
2017-11-03T03:58:04.628Z,23.58
2017-11-03T04:00:32.242Z,22.90
2017-11-03T04:02:59.879Z,23.70
2017-11-03T04:05:27.452Z,21.98
2017-11-03T04:07:55.058Z,22.52
2017-11-03T04:10:22.674Z,21.67
2017-11-03T04:12:50.299Z,20.45
2017-11-03T04:15:17.966Z,20.80
2017-11-03T04:17:45.578Z,20.98
2017-11-03T04:20:13.195Z,21.45
2017-11-03T04:22:40.831Z,19.85
2017-11-03T04:25:08.467Z,22.33
2017-11-03T04:27:36.875Z,19.50
2017-11-03T04:30:04.454Z,19.42
2017-11-03T04:32:32.045Z,20.12
2017-11-03T04:34:59.661Z,19.02
2017-11-03T04:37:27.295Z,18.30
2017-11-03T04:39:55.658Z,16.42
2017-11-03T04:42:24.045Z,16.35
2017-11-03T04:44:52.427Z,15.77
2017-11-03T04:47:20.799Z,15.55
2017-11-03T04:49:49.176Z,14.80
2017-11-03T04:52:17.517Z,15.57
2017-11-03T04:54:45.088Z,13.52
2017-11-03T04:57:12.711Z,14.65
2017-11-03T04:59:40.323Z,14.43
2017-11-03T05:02:07.935Z,13.70
2017-11-03T05:04:35.548Z,12.43
2017-11-03T05:07:03.158Z,14.20
2017-11-03T05:09:30.772Z,13.20
2017-11-03T05:11:58.386Z,11.32
2017-11-03T05:14:26.054Z,11.80
2017-11-03T05:16:53.662Z,18.30
2017-11-03T05:19:22.034Z,16.12
2017-11-03T05:21:49.650Z,13.25
2017-11-03T05:24:17.220Z,11.40
2017-11-03T05:26:44.826Z,12.05
2017-11-03T05:29:12.445Z,11.55
2017-11-03T05:31:40.024Z,11.65
2017-11-03T05:34:07.630Z,12.95
2017-11-03T05:36:35.250Z,13.00
2017-11-03T05:39:02.878Z,13.75
2017-11-03T05:41:30.502Z,12.35
2017-11-03T05:43:58.874Z,13.80
2017-11-03T05:46:26.513Z,14.00
2017-11-03T05:48:54.127Z,14.13
2017-11-03T05:51:21.751Z,13.18
2017-11-03T05:53:49.370Z,14.30
2017-11-03T05:56:16.982Z,14.00
2017-11-03T05:58:45.318Z,13.32
2017-11-03T06:01:12.921Z,13.50
2017-11-03T06:03:40.534Z,13.07
2017-11-03T06:06:08.143Z,14.05
2017-11-03T06:08:35.770Z,13.05
2017-11-03T06:11:03.383Z,13.60
2017-11-03T06:13:31.004Z,13.45
2017-11-03T06:15:58.580Z,12.82
2017-11-03T06:18:26.194Z,14.70
2017-11-03T06:20:53.763Z,13.70
2017-11-03T06:23:21.329Z,14.82
2017-11-03T06:25:48.935Z,14.70
2017-11-03T06:28:17.310Z,15.05
2017-11-03T06:30:45.751Z,13.88
2017-11-03T06:33:13.380Z,14.10
2017-11-03T06:35:40.989Z,14.80
2017-11-03T06:38:08.595Z,13.50
2017-11-03T06:40:36.215Z,16.30
2017-11-03T06:43:03.847Z,16.45
2017-11-03T06:45:31.455Z,17.30
2017-11-03T06:47:59.080Z,18.42
2017-11-03T06:50:26.694Z,19.33
2017-11-03T06:52:54.313Z,17.40
2017-11-03T06:55:21.930Z,18.98
2017-11-03T06:57:49.539Z,18.62
2017-11-03T07:00:17.153Z,19.75
2017-11-03T07:02:44.732Z,19.75
2017-11-03T07:05:12.308Z,18.05
2017-11-03T07:07:39.930Z,19.65
2017-11-03T07:10:07.570Z,20.10
2017-11-03T07:12:35.180Z,20.75
2017-11-03T07:15:02.795Z,18.75
2017-11-03T07:17:30.420Z,17.20
2017-11-03T07:19:58.032Z,17.90
2017-11-03T07:22:25.648Z,17.50
2017-11-03T07:24:53.267Z,17.67
2017-11-03T07:27:20.878Z,17.65
2017-11-03T07:29:48.486Z,17.40
2017-11-03T07:32:16.104Z,17.73
2017-11-03T07:34:43.714Z,17.27
2017-11-03T07:37:11.362Z,16.87
2017-11-03T07:39:38.982Z,16.77
2017-11-03T07:42:06.639Z,17.10
2017-11-03T07:44:34.210Z,16.75
2017-11-03T07:47:01.832Z,17.08
2017-11-03T07:49:29.535Z,17.50
2017-11-03T07:51:57.146Z,17.33
2017-11-03T07:54:24.751Z,15.82
2017-11-03T07:56:52.355Z,17.08
2017-11-03T07:59:19.967Z,15.80
2017-11-03T08:01:47.579Z,16.00
2017-11-03T08:04:15.234Z,16.27
2017-11-03T08:06:42.838Z,14.20
2017-11-03T08:09:10.450Z,12.63
2017-11-03T08:11:38.053Z,13.02
2017-11-03T08:14:05.666Z,13.25
2017-11-03T08:16:34.039Z,12.68
2017-11-03T08:19:02.464Z,12.95
2017-11-03T08:21:30.032Z,13.60
2017-11-03T08:23:57.634Z,13.32
2017-11-03T08:26:26.006Z,13.07
2017-11-03T08:28:53.621Z,10.98
2017-11-03T08:31:21.233Z,13.05
2017-11-03T08:33:49.610Z,12.40
2017-11-03T08:36:17.988Z,12.65
2017-11-03T08:38:46.364Z,13.15
2017-11-03T08:41:13.976Z,12.50
2017-11-03T08:43:41.543Z,11.52
2017-11-03T08:46:09.151Z,12.82
2017-11-03T08:48:36.763Z,13.48
2017-11-03T08:51:04.336Z,11.70
2017-11-03T08:53:31.962Z,12.98
2017-11-03T08:55:59.578Z,12.27
2017-11-03T08:58:27.187Z,12.80
2017-11-03T09:00:54.771Z,11.65
2017-11-03T09:03:22.423Z,10.95
2017-11-03T09:05:50.239Z,11.50
2017-11-03T09:08:17.847Z,10.40
2017-11-03T09:10:45.464Z,12.70
2017-11-03T09:13:13.848Z,12.20
2017-11-03T09:15:42.179Z,11.40
2017-11-03T09:18:09.794Z,10.38
2017-11-03T09:20:37.420Z,11.48
2017-11-03T09:23:05.049Z,9.82
2017-11-03T09:25:32.678Z,11.32
2017-11-03T09:28:01.076Z,10.18
2017-11-03T09:30:28.649Z,9.70
2017-11-03T09:32:56.270Z,8.55
2017-11-03T09:35:24.647Z,8.70
2017-11-03T09:37:53.043Z,8.65
2017-11-03T09:40:21.424Z,11.32
2017-11-03T09:42:49.047Z,10.02
2017-11-03T09:45:16.655Z,8.98
2017-11-03T09:47:44.257Z,8.55
2017-11-03T09:50:11.890Z,9.10
2017-11-03T09:52:39.490Z,10.18
2017-11-03T09:55:07.142Z,10.25
2017-11-03T09:57:34.756Z,9.75
2017-11-03T10:00:02.362Z,10.10
2017-11-03T10:02:29.966Z,9.52
2017-11-03T10:04:57.578Z,11.90
2017-11-03T10:07:25.178Z,9.15
2017-11-03T10:09:52.780Z,7.80
2017-11-03T10:12:20.342Z,8.98
2017-11-03T10:14:47.963Z,9.25
2017-11-03T10:17:16.338Z,9.50
2017-11-03T10:19:44.676Z,9.40
2017-11-03T10:22:12.285Z,8.63
2017-11-03T10:24:39.903Z,8.60
2017-11-03T10:27:07.498Z,8.70
2017-11-03T10:29:35.106Z,9.75
2017-11-03T10:32:02.714Z,9.82
2017-11-03T10:34:30.323Z,9.27
2017-11-03T10:36:57.927Z,8.38
2017-11-03T10:39:25.537Z,9.07
2017-11-03T10:41:53.100Z,7.80
2017-11-03T10:44:20.717Z,7.32
2017-11-03T10:46:48.283Z,8.63
2017-11-03T10:49:16.650Z,8.20
2017-11-03T10:51:44.280Z,7.32
2017-11-03T10:54:11.849Z,7.62
2017-11-03T10:56:39.454Z,6.20
2017-11-03T10:59:07.017Z,7.30
2017-11-03T11:01:34.601Z,6.25
2017-11-03T11:04:02.235Z,6.90
2017-11-03T11:06:29.824Z,7.35
2017-11-03T11:08:57.446Z,7.80
2017-11-03T11:11:25.012Z,8.00
2017-11-03T11:13:53.383Z,6.95
2017-11-03T11:16:20.998Z,7.35
2017-11-03T11:18:48.594Z,8.48
2017-11-03T11:21:16.200Z,9.02
2017-11-03T11:23:43.846Z,8.13
2017-11-03T11:26:12.223Z,8.13
2017-11-03T11:28:40.595Z,8.30
2017-11-03T11:31:08.970Z,8.15
2017-11-03T11:33:37.354Z,8.57
2017-11-03T11:36:05.736Z,9.13
2017-11-03T11:38:34.080Z,9.15
2017-11-03T11:41:01.929Z,12.75
2017-11-03T11:43:29.520Z,9.65
2017-11-03T11:45:57.149Z,10.07
2017-11-03T11:48:24.779Z,10.35
2017-11-03T11:50:52.371Z,9.82
2017-11-03T11:53:20.003Z,7.85
2017-11-03T11:55:47.635Z,8.63
2017-11-03T11:58:15.251Z,8.50
2017-11-03T12:00:42.882Z,8.45
2017-11-03T12:03:10.479Z,9.68
2017-11-03T12:05:38.062Z,9.68
2017-11-03T12:08:05.650Z,10.05
2017-11-03T12:10:33.287Z,11.12
2017-11-03T12:13:00.927Z,12.02
2017-11-03T12:15:28.562Z,10.77
2017-11-03T12:17:56.208Z,10.93
2017-11-03T12:20:23.830Z,10.10
2017-11-03T12:22:51.470Z,9.95
2017-11-03T12:25:19.106Z,9.60
2017-11-03T12:27:46.736Z,9.45
2017-11-03T12:30:14.366Z,10.70
2017-11-03T12:32:41.994Z,11.38
2017-11-03T12:35:09.622Z,9.50
2017-11-03T12:37:38.007Z,9.55
2017-11-03T12:40:06.398Z,9.27
2017-11-03T12:42:34.043Z,10.00
2017-11-03T12:45:02.441Z,11.25
2017-11-03T12:47:30.063Z,11.38
2017-11-03T12:49:57.753Z,10.45
2017-11-03T12:52:26.142Z,10.93
2017-11-03T12:54:54.537Z,9.90
2017-11-03T12:57:22.166Z,11.00
2017-11-03T12:59:49.813Z,10.63
2017-11-03T13:02:17.451Z,11.25
2017-11-03T13:04:45.048Z,11.40
2017-11-03T13:07:12.768Z,11.40
2017-11-03T13:09:40.362Z,9.93
2017-11-03T13:12:08.040Z,10.13
2017-11-03T13:14:35.662Z,11.20
2017-11-03T13:17:03.286Z,11.02
2017-11-03T13:19:30.914Z,9.10
2017-11-03T13:21:58.499Z,9.85
2017-11-03T13:24:26.115Z,9.55
2017-11-03T13:26:54.790Z,9.27
2017-11-03T13:29:22.427Z,8.75
2017-11-03T13:31:50.054Z,8.60
2017-11-03T13:34:18.431Z,8.75
2017-11-03T13:36:46.814Z,8.10
2017-11-03T13:39:15.201Z,8.75
2017-11-03T13:41:43.586Z,8.85
2017-11-03T13:44:11.163Z,9.07
2017-11-03T13:46:38.756Z,8.15
2017-11-03T13:49:06.378Z,8.75
2017-11-03T13:51:33.991Z,10.02
2017-11-03T13:54:01.615Z,8.65
2017-11-03T13:56:29.238Z,9.05
2017-11-03T13:58:57.642Z,7.95
2017-11-03T14:01:25.253Z,8.20
2017-11-03T14:03:52.874Z,8.75
2017-11-03T14:06:20.447Z,8.95
2017-11-03T14:08:48.066Z,7.80
2017-11-03T14:11:16.446Z,8.32
2017-11-03T14:13:44.820Z,9.13
2017-11-03T14:16:13.156Z,9.52
2017-11-03T14:18:40.762Z,9.32
2017-11-03T14:21:08.381Z,10.77
2017-11-03T14:23:35.949Z,8.25
2017-11-03T14:26:03.630Z,9.18
2017-11-03T14:28:31.632Z,9.38
2017-11-03T14:31:00.057Z,10.85
2017-11-03T14:33:27.930Z,9.13
2017-11-03T14:35:55.649Z,10.27
2017-11-03T14:38:23.258Z,8.30
2017-11-03T14:40:50.892Z,8.73
2017-11-03T14:43:18.599Z,7.93
2017-11-03T14:45:46.202Z,9.25
2017-11-03T14:48:13.807Z,7.70
2017-11-03T14:50:41.414Z,7.55
2017-11-03T14:53:09.020Z,7.57
2017-11-03T14:55:36.622Z,6.95
2017-11-03T14:58:04.229Z,6.50
2017-11-03T15:00:31.832Z,5.62
2017-11-03T15:03:00.198Z,5.80
2017-11-03T15:05:27.859Z,7.00
2017-11-03T15:07:55.462Z,5.28
2017-11-03T15:10:25.529Z,5.30
2017-11-03T15:12:53.163Z,4.82
2017-11-03T15:15:20.723Z,5.25
2017-11-03T15:17:48.478Z,5.60
2017-11-03T15:20:16.086Z,5.90
2017-11-03T15:22:43.690Z,5.50
2017-11-03T15:25:11.350Z,5.80
2017-11-03T15:27:38.962Z,6.05
2017-11-03T15:30:06.572Z,5.60
2017-11-03T15:32:34.170Z,6.65
2017-11-03T15:35:01.814Z,5.87
2017-11-03T15:37:29.422Z,7.72
2017-11-03T15:39:57.025Z,6.80
2017-11-03T15:42:24.635Z,7.15
2017-11-03T15:44:52.240Z,7.35
2017-11-03T15:47:19.838Z,7.50
2017-11-03T15:49:47.462Z,8.55
2017-11-03T15:52:15.037Z,8.65
2017-11-03T15:54:42.662Z,8.98
2017-11-03T15:57:10.318Z,7.32
2017-11-03T15:59:38.731Z,9.18
2017-11-03T16:02:06.291Z,9.27
2017-11-03T16:04:33.904Z,9.20
2017-11-03T16:07:01.506Z,10.63
2017-11-03T16:09:29.719Z,11.18
2017-11-03T16:11:57.406Z,10.50
2017-11-03T16:14:25.010Z,10.82
2017-11-03T16:16:52.619Z,10.88
2017-11-03T16:19:20.245Z,18.17
2017-11-03T16:21:47.854Z,23.25
2017-11-03T16:24:15.471Z,19.27
2017-11-03T16:26:43.078Z,15.88
2017-11-03T16:29:10.692Z,15.15
2017-11-03T16:31:38.272Z,12.63
2017-11-03T16:34:05.882Z,11.57
2017-11-03T16:36:33.489Z,10.70
2017-11-03T16:39:01.142Z,11.12
2017-11-03T16:41:28.754Z,53.22
2017-11-03T16:43:56.374Z,67.18
2017-11-03T16:46:23.996Z,55.95
2017-11-03T16:48:51.581Z,39.40
2017-11-03T16:51:19.218Z,38.65
2017-11-03T16:53:46.831Z,47.97
2017-11-03T16:56:14.531Z,56.90
2017-11-03T16:58:42.915Z,54.40
2017-11-03T17:01:10.707Z,57.28
2017-11-03T17:03:38.289Z,73.53
2017-11-03T17:06:05.929Z,72.78
2017-11-03T17:08:33.571Z,62.88
2017-11-03T17:11:01.168Z,83.25
2017-11-03T17:13:28.804Z,53.85
2017-11-03T17:15:56.383Z,43.15
2017-11-03T17:18:23.957Z,46.13
2017-11-03T17:20:51.682Z,56.33
2017-11-03T17:23:19.301Z,36.60
2017-11-03T17:25:46.910Z,35.72
2017-11-03T17:28:14.515Z,39.67
2017-11-03T17:30:42.125Z,45.60
2017-11-03T17:33:09.735Z,48.17
2017-11-03T17:35:37.523Z,109.25
2017-11-03T17:38:05.867Z,76.43
2017-11-03T17:40:33.853Z,54.45
2017-11-03T17:43:01.461Z,34.58
2017-11-03T17:45:29.076Z,48.05
2017-11-03T17:47:56.691Z,109.68
2017-11-03T17:50:24.302Z,110.12
2017-11-03T17:52:51.912Z,75.18
2017-11-03T17:55:20.551Z,70.00
2017-11-03T17:57:48.314Z,64.00
2017-11-03T18:00:16.754Z,38.65
2017-11-03T18:02:44.473Z,25.90
2017-11-03T18:05:12.863Z,20.85
2017-11-03T18:07:40.437Z,23.80
2017-11-03T18:10:08.022Z,25.33
2017-11-03T18:12:35.647Z,20.95
2017-11-03T18:15:03.279Z,19.55
2017-11-03T18:17:31.851Z,19.42
2017-11-03T18:19:59.418Z,26.15
2017-11-03T18:22:27.212Z,25.80
2017-11-03T18:24:54.970Z,23.52
2017-11-03T18:27:23.343Z,23.40
2017-11-03T18:29:51.719Z,21.35
2017-11-03T18:32:20.106Z,20.58
2017-11-03T18:34:48.443Z,21.25
2017-11-03T18:37:16.230Z,20.15
2017-11-03T18:39:43.858Z,20.73
2017-11-03T18:42:11.462Z,20.83
2017-11-03T18:44:39.112Z,20.00
2017-11-03T18:47:06.769Z,20.60
2017-11-03T18:49:34.386Z,19.15
2017-11-03T18:52:02.163Z,20.50
2017-11-03T18:54:30.506Z,22.80
2017-11-03T18:56:58.147Z,29.30
2017-11-03T18:59:25.754Z,28.73
2017-11-03T19:01:53.359Z,32.75
2017-11-03T19:04:20.928Z,31.33
2017-11-03T19:06:48.499Z,30.05
2017-11-03T19:09:16.833Z,28.10
2017-11-03T19:11:44.658Z,26.02
2017-11-03T19:14:12.268Z,24.90
2017-11-03T19:16:39.875Z,22.62
2017-11-03T19:19:08.209Z,22.90
2017-11-03T19:21:35.866Z,25.50
2017-11-03T19:24:04.650Z,22.37
2017-11-03T19:26:32.258Z,25.65
2017-11-03T19:29:00.637Z,25.23
2017-11-03T19:31:29.169Z,24.92
2017-11-03T19:33:56.775Z,24.17
2017-11-03T19:36:24.311Z,26.25
2017-11-03T19:38:51.922Z,21.40
2017-11-03T19:41:19.654Z,24.15
2017-11-03T19:43:48.315Z,24.50
2017-11-03T19:46:15.942Z,24.73
2017-11-03T19:48:43.571Z,23.80
2017-11-03T19:51:11.905Z,23.52
2017-11-03T19:53:40.657Z,23.95
2017-11-03T19:56:08.270Z,22.30
2017-11-03T19:58:35.879Z,23.48
2017-11-03T20:01:03.540Z,21.25
2017-11-03T20:03:31.435Z,22.77
2017-11-03T20:05:59.139Z,21.37
2017-11-03T20:08:26.793Z,21.40
2017-11-03T20:10:54.426Z,21.25
2017-11-03T20:13:22.038Z,22.83
2017-11-03T20:15:49.649Z,21.65
2017-11-03T20:18:17.261Z,21.77
2017-11-03T20:20:45.638Z,23.38
2017-11-03T20:23:13.255Z,23.70
2017-11-03T20:25:40.947Z,24.58
2017-11-03T20:28:08.558Z,23.08
2017-11-03T20:30:36.184Z,21.95
2017-11-03T20:33:04.568Z,24.30
2017-11-03T20:35:32.184Z,23.15
2017-11-03T20:37:59.805Z,21.92
2017-11-03T20:40:27.420Z,21.83
2017-11-03T20:42:55.051Z,20.67
2017-11-03T20:45:22.659Z,21.33
2017-11-03T20:47:50.203Z,24.27
2017-11-03T20:50:17.816Z,23.73
2017-11-03T20:52:45.447Z,25.35
2017-11-03T20:55:13.780Z,26.55
2017-11-03T20:57:41.349Z,27.10
2017-11-03T21:00:08.954Z,27.45
2017-11-03T21:02:36.528Z,28.55
2017-11-03T21:05:04.097Z,28.40
2017-11-03T21:07:31.721Z,27.80
2017-11-03T21:09:59.335Z,27.67
2017-11-03T21:12:26.910Z,27.25
2017-11-03T21:14:55.615Z,28.60
2017-11-03T21:17:23.252Z,27.05
2017-11-03T21:19:50.865Z,28.60
2017-11-03T21:22:18.522Z,28.80
2017-11-03T21:24:46.142Z,26.80
2017-11-03T21:27:14.027Z,26.70
2017-11-03T21:29:41.661Z,27.25
2017-11-03T21:32:09.271Z,29.17
2017-11-03T21:34:36.905Z,27.73
2017-11-03T21:37:04.603Z,29.33
2017-11-03T21:39:33.522Z,28.98
2017-11-03T21:42:01.172Z,28.67
2017-11-03T21:44:28.789Z,29.42
2017-11-03T21:46:56.406Z,30.35
2017-11-03T21:49:23.975Z,29.67
2017-11-03T21:51:51.796Z,28.95
2017-11-03T21:54:20.141Z,28.27
2017-11-03T21:56:47.708Z,30.48
2017-11-03T21:59:15.394Z,28.30
2017-11-03T22:01:43.729Z,29.23
2017-11-03T22:04:11.379Z,29.15
2017-11-03T22:06:38.992Z,30.08
2017-11-03T22:09:07.379Z,30.20
2017-11-03T22:11:35.767Z,28.25
2017-11-03T22:14:04.230Z,28.83
2017-11-03T22:16:31.859Z,29.50
2017-11-03T22:18:59.719Z,29.42
2017-11-03T22:21:27.330Z,27.50
2017-11-03T22:23:54.898Z,28.77
2017-11-03T22:26:22.744Z,28.20
2017-11-03T22:28:50.351Z,28.40
2017-11-03T22:31:17.962Z,27.27
2017-11-03T22:33:45.691Z,28.02
2017-11-03T22:36:13.261Z,28.25
2017-11-03T22:38:40.878Z,27.37
2017-11-03T22:41:08.483Z,24.77
2017-11-03T22:43:36.091Z,24.92
2017-11-03T22:46:04.462Z,25.20
2017-11-03T22:48:32.839Z,24.70
2017-11-03T22:51:01.177Z,24.08
2017-11-03T22:53:28.786Z,26.17
2017-11-03T22:55:56.393Z,24.23
2017-11-03T22:58:24.000Z,24.87
2017-11-03T23:00:51.614Z,25.50
2017-11-03T23:03:19.269Z,24.15
2017-11-03T23:05:46.880Z,24.95
2017-11-03T23:08:15.591Z,22.73
2017-11-03T23:10:43.160Z,22.90
2017-11-03T23:13:10.780Z,22.17
2017-11-03T23:15:38.386Z,21.02
2017-11-03T23:18:05.994Z,21.67
2017-11-03T23:20:33.606Z,22.20
2017-11-03T23:23:01.267Z,22.83
2017-11-03T23:25:28.871Z,23.58
2017-11-03T23:27:56.447Z,21.62
2017-11-03T23:30:24.057Z,22.85
2017-11-03T23:32:51.675Z,21.90
2017-11-03T23:35:19.286Z,22.27
2017-11-03T23:37:46.894Z,22.98
2017-11-03T23:40:14.508Z,23.10
2017-11-03T23:42:42.078Z,24.45
2017-11-03T23:45:09.743Z,22.20
2017-11-03T23:47:37.392Z,23.77
2017-11-03T23:50:04.964Z,23.48
2017-11-03T23:52:32.528Z,23.87
2017-11-03T23:55:00.140Z,23.95
2017-11-03T23:57:27.747Z,23.27
2017-11-03T23:59:55.355Z,23.58
